PWSweather.com
Personal Weather Stations
Station Observations
SHAHALMS1
Eftra, Falkenberg, HA

EftraFalkenberg, HA

Lat: 56.85, Lon: 12.65

Elevation: 140

Station Type:

http://hem.passagen.se/risarp101

Latest ConditionsUpdated 8:45:01 PM GMT+1 Wednesday, Dec 12, 2018
Currently Today's Max Today's Min Today's Average
Temperature 32.0°F0.0°C 36.7°F2.6°C 32.0°F0.0°C 34.6°F1.4°C
Dew Point 23.7°F-4.6°C 30.2°F-1.0°C 23.7°F-4.6°C 27.6°F-2.4°C
Winds 7.5 mph NE12.1 kmh NE 8.4 mph -13.5 kmh - - 3.5 mph 5.6 kmh
Wind Gusts 12.5 mph20.1 kmh 19.7 mph31.7 kmh - -
Humidity 71% 82% 71% 75%
Pressure 30.15 in1021.0 mb 30.15 in1021.0 mb 29.95 in1014.2 mb -
Hour Temp Dew Point Humidity Winds Wind Gusts Pressure Precip Precip Rate Daily Precip Total
08:45 PM 32.0°F0.0°C 23.7°F-4.6°C 71% 7.5 mph NE12.1 kmh NE 12.5 mph20.1 kmh 30.15 in1021.0 mb 0.00 in0.0 mm 0.00 in0.0 mm 0.00 in0.0 mm
08:30 PM 32.0°F0.0°C 23.7°F-4.6°C 71% 8.3 mph ENE13.4 kmh ENE 19.7 mph31.7 kmh 30.15 in1021.0 mb 0.00 in0.0 mm 0.00 in0.0 mm 0.00 in0.0 mm
08:15 PM 32.2°F0.1°C 24.5°F-4.2°C 73% 7.3 mph ENE11.7 kmh ENE 11.8 mph19.0 kmh 30.15 in1021.0 mb 0.00 in0.0 mm 0.00 in0.0 mm 0.00 in0.0 mm
08:00 PM 32.4°F0.2°C 25.0°F-3.9°C 74% 2.8 mph ENE4.5 kmh ENE 10.0 mph16.1 kmh 30.15 in1021.0 mb 0.00 in0.0 mm 0.00 in0.0 mm 0.00 in0.0 mm
07:45 PM 32.5°F0.3°C 25.5°F-3.6°C 75% 4.4 mph NE7.1 kmh NE 9.3 mph15.0 kmh 30.12 in1020.0 mb 0.00 in0.0 mm 0.00 in0.0 mm 0.00 in0.0 mm
07:30 PM 32.4°F0.2°C 25.3°F-3.7°C 75% 5.6 mph NE9.0 kmh NE 10.0 mph16.1 kmh 30.12 in1020.0 mb 0.00 in0.0 mm 0.00 in0.0 mm 0.00 in0.0 mm
07:15 PM 32.4°F0.2°C 25.3°F-3.7°C 75% 6.8 mph NE10.9 kmh NE 14.0 mph22.5 kmh 30.12 in1020.0 mb 0.00 in0.0 mm 0.00 in0.0 mm 0.00 in0.0 mm
07:00 PM 32.4°F0.2°C 25.3°F-3.7°C 75% 7.4 mph NE11.9 kmh NE 12.2 mph19.6 kmh 30.12 in1020.0 mb 0.00 in0.0 mm 0.00 in0.0 mm 0.00 in0.0 mm
06:45 PM 32.7°F0.4°C 25.7°F-3.5°C 75% 4.2 mph NE6.8 kmh NE 10.4 mph16.7 kmh 30.12 in1020.0 mb 0.00 in0.0 mm 0.00 in0.0 mm 0.00 in0.0 mm
06:30 PM 32.9°F0.5°C 25.8°F-3.4°C 75% 4.4 mph NE7.1 kmh NE 8.9 mph14.3 kmh 30.12 in1020.0 mb 0.00 in0.0 mm 0.00 in0.0 mm 0.00 in0.0 mm
06:15 PM 32.9°F0.5°C 25.5°F-3.6°C 74% 8.4 mph NE13.5 kmh NE 13.6 mph21.9 kmh 30.12 in1020.0 mb 0.00 in0.0 mm 0.00 in0.0 mm 0.00 in0.0 mm
06:00 PM 33.4°F0.8°C 26.4°F-3.1°C 75% 7.6 mph NE12.2 kmh NE 12.2 mph19.6 kmh 30.12 in1020.0 mb 0.00 in0.0 mm 0.00 in0.0 mm 0.00 in0.0 mm
05:45 PM 33.6°F0.9°C 26.9°F-2.8°C 76% 7.2 mph NE11.6 kmh NE 16.1 mph25.9 kmh 30.12 in1020.0 mb 0.00 in0.0 mm 0.00 in0.0 mm 0.00 in0.0 mm
05:30 PM 33.8°F1.0°C 27.0°F-2.8°C 76% 4.5 mph NE7.2 kmh NE 8.6 mph13.8 kmh 30.09 in1019.0 mb 0.00 in0.0 mm 0.00 in0.0 mm 0.00 in0.0 mm
05:15 PM 33.8°F1.0°C 27.4°F-2.6°C 77% 5.4 mph NE8.7 kmh NE 10.4 mph16.7 kmh 30.09 in1019.0 mb 0.00 in0.0 mm 0.00 in0.0 mm 0.00 in0.0 mm
05:00 PM 33.8°F1.0°C 27.4°F-2.6°C 77% 5.9 mph NE9.5 kmh NE 14.0 mph22.5 kmh 30.09 in1019.0 mb 0.00 in0.0 mm 0.00 in0.0 mm 0.00 in0.0 mm
04:45 PM 33.8°F1.0°C 27.4°F-2.6°C 77% 5.5 mph NE8.9 kmh NE 10.0 mph16.1 kmh 30.09 in1019.0 mb 0.00 in0.0 mm 0.00 in0.0 mm 0.00 in0.0 mm
04:30 PM 33.8°F1.0°C 27.0°F-2.8°C 76% 4.6 mph ENE7.4 kmh ENE 10.0 mph16.1 kmh 30.12 in1020.0 mb 0.00 in0.0 mm 0.00 in0.0 mm 0.00 in0.0 mm
04:15 PM 33.8°F1.0°C 26.7°F-2.9°C 75% 6.8 mph NE10.9 kmh NE 10.4 mph16.7 kmh 30.12 in1020.0 mb 0.00 in0.0 mm 0.00 in0.0 mm 0.00 in0.0 mm
04:00 PM 34.0°F1.1°C 26.6°F-3.0°C 74% 5.7 mph NE9.2 kmh NE 9.3 mph15.0 kmh 30.12 in1020.0 mb 0.00 in0.0 mm 0.00 in0.0 mm 0.00 in0.0 mm
03:45 PM 34.5°F1.4°C 27.1°F-2.7°C 74% 7.0 mph NNE11.3 kmh NNE 12.2 mph19.6 kmh 30.09 in1019.0 mb 0.00 in0.0 mm 0.00 in0.0 mm 0.00 in0.0 mm
03:30 PM 34.7°F1.5°C 27.3°F-2.6°C 74% 6.4 mph NNE10.3 kmh NNE 12.2 mph19.6 kmh 30.09 in1019.0 mb 0.00 in0.0 mm 0.00 in0.0 mm 0.00 in0.0 mm
03:15 PM 34.7°F1.5°C 26.9°F-2.8°C 73% 5.8 mph NE9.3 kmh NE 10.0 mph16.1 kmh 30.12 in1020.0 mb 0.00 in0.0 mm 0.00 in0.0 mm 0.00 in0.0 mm
03:00 PM 34.9°F1.6°C 27.1°F-2.7°C 73% 1.5 mph NNE2.4 kmh NNE 6.1 mph9.8 kmh 30.09 in1019.0 mb 0.00 in0.0 mm 0.00 in0.0 mm 0.00 in0.0 mm
02:45 PM 35.2°F1.8°C 27.1°F-2.7°C 72% 6.6 mph NE10.6 kmh NE 11.5 mph18.5 kmh 30.09 in1019.0 mb 0.00 in0.0 mm 0.00 in0.0 mm 0.00 in0.0 mm
02:30 PM 35.6°F2.0°C 27.8°F-2.3°C 73% 3.3 mph NE5.3 kmh NE 6.4 mph10.3 kmh 30.09 in1019.0 mb 0.00 in0.0 mm 0.00 in0.0 mm 0.00 in0.0 mm
02:15 PM 35.8°F2.1°C 28.0°F-2.2°C 73% 1.7 mph N2.7 kmh N 9.3 mph15.0 kmh 30.09 in1019.0 mb 0.00 in0.0 mm 0.00 in0.0 mm 0.00 in0.0 mm
02:00 PM 35.6°F2.0°C 27.5°F-2.5°C 72% 5.1 mph N8.2 kmh N 10.0 mph16.1 kmh 30.09 in1019.0 mb 0.00 in0.0 mm 0.00 in0.0 mm 0.00 in0.0 mm
01:45 PM 35.6°F2.0°C 27.5°F-2.5°C 72% 5.5 mph NNE8.9 kmh NNE 13.6 mph21.9 kmh 30.07 in1018.3 mb 0.00 in0.0 mm 0.00 in0.0 mm 0.00 in0.0 mm
01:30 PM 35.6°F2.0°C 27.5°F-2.5°C 72% 4.0 mph NE6.4 kmh NE 7.9 mph12.7 kmh 30.07 in1018.3 mb 0.00 in0.0 mm 0.00 in0.0 mm 0.00 in0.0 mm
01:15 PM 36.0°F2.2°C 27.5°F-2.5°C 71% 4.5 mph NE7.2 kmh NE 8.9 mph14.3 kmh 30.09 in1019.0 mb 0.00 in0.0 mm 0.00 in0.0 mm 0.00 in0.0 mm
01:00 PM 36.1°F2.3°C 27.6°F-2.4°C 71% 2.4 mph NE3.9 kmh NE 8.6 mph13.8 kmh 30.12 in1020.0 mb 0.00 in0.0 mm 0.00 in0.0 mm 0.00 in0.0 mm
12:45 PM 36.5°F2.5°C 28.3°F-2.1°C 72% 2.8 mph NNE4.5 kmh NNE 8.6 mph13.8 kmh 30.09 in1019.0 mb 0.00 in0.0 mm 0.00 in0.0 mm 0.00 in0.0 mm
12:30 PM 36.5°F2.5°C 28.3°F-2.1°C 72% 5.0 mph NNE8.0 kmh NNE 10.7 mph17.2 kmh 30.12 in1020.0 mb 0.00 in0.0 mm 0.00 in0.0 mm 0.00 in0.0 mm
12:15 PM 36.7°F2.6°C 28.8°F-1.8°C 73% 3.8 mph NE6.1 kmh NE 10.0 mph16.1 kmh 30.09 in1019.0 mb 0.00 in0.0 mm 0.00 in0.0 mm 0.00 in0.0 mm
12:00 PM 36.0°F2.2°C 28.5°F-1.9°C 74% 0.4 mph NE0.6 kmh NE 4.3 mph6.9 kmh 30.07 in1018.3 mb 0.00 in0.0 mm 0.00 in0.0 mm 0.00 in0.0 mm
11:45 AM 35.6°F2.0°C 27.8°F-2.3°C 73% 1.2 mph NNE1.9 kmh NNE 6.8 mph10.9 kmh 30.07 in1018.3 mb 0.00 in0.0 mm 0.00 in0.0 mm 0.00 in0.0 mm
11:30 AM 36.0°F2.2°C 28.1°F-2.2°C 73% 1.5 mph NE2.4 kmh NE 8.9 mph14.3 kmh 30.07 in1018.3 mb 0.00 in0.0 mm 0.00 in0.0 mm 0.00 in0.0 mm
11:15 AM 36.1°F2.3°C 29.0°F-1.7°C 75% 4.8 mph NE7.7 kmh NE 14.0 mph22.5 kmh 30.07 in1018.3 mb 0.00 in0.0 mm 0.00 in0.0 mm 0.00 in0.0 mm
11:00 AM 36.1°F2.3°C 29.3°F-1.5°C 76% 4.2 mph N6.8 kmh N 9.7 mph15.6 kmh 30.09 in1019.0 mb 0.00 in0.0 mm 0.00 in0.0 mm 0.00 in0.0 mm
10:45 AM 36.0°F2.2°C 29.1°F-1.6°C 76% 4.6 mph NNE7.4 kmh NNE 9.7 mph15.6 kmh 30.09 in1019.0 mb 0.00 in0.0 mm 0.00 in0.0 mm 0.00 in0.0 mm
10:30 AM 36.0°F2.2°C 29.8°F-1.2°C 78% 3.3 mph N5.3 kmh N 10.0 mph16.1 kmh 30.09 in1019.0 mb 0.00 in0.0 mm 0.00 in0.0 mm 0.00 in0.0 mm
10:15 AM 35.8°F2.1°C 29.6°F-1.3°C 78% 2.4 mph N3.9 kmh N 10.0 mph16.1 kmh 30.09 in1019.0 mb 0.00 in0.0 mm 0.00 in0.0 mm 0.00 in0.0 mm
10:00 AM 35.6°F2.0°C 29.7°F-1.3°C 79% 1.9 mph NNE3.1 kmh NNE 7.9 mph12.7 kmh 30.07 in1018.3 mb 0.00 in0.0 mm 0.00 in0.0 mm 0.00 in0.0 mm
09:45 AM 35.8°F2.1°C 29.9°F-1.2°C 79% 1.5 mph NE2.4 kmh NE 6.1 mph9.8 kmh 30.07 in1018.3 mb 0.00 in0.0 mm 0.00 in0.0 mm 0.00 in0.0 mm
09:30 AM 35.6°F2.0°C 30.0°F-1.1°C 80% 2.8 mph NE4.5 kmh NE 6.8 mph10.9 kmh 30.07 in1018.3 mb 0.00 in0.0 mm 0.00 in0.0 mm 0.00 in0.0 mm
09:15 AM 35.4°F1.9°C 30.2°F-1.0°C 81% 4.7 mph NNE7.6 kmh NNE 8.6 mph13.8 kmh 30.07 in1018.3 mb 0.00 in0.0 mm 0.00 in0.0 mm 0.00 in0.0 mm
09:00 AM 35.1°F1.7°C 30.1°F-1.1°C 82% 2.5 mph NE4.0 kmh NE 6.8 mph10.9 kmh 30.07 in1018.3 mb 0.00 in0.0 mm 0.00 in0.0 mm 0.00 in0.0 mm
08:45 AM 34.7°F1.5°C 29.8°F-1.2°C 82% 0.7 mph N1.1 kmh N 5.4 mph8.7 kmh 30.07 in1018.3 mb 0.00 in0.0 mm 0.00 in0.0 mm 0.00 in0.0 mm
08:30 AM 34.3°F1.3°C 29.4°F-1.4°C 82% 4.3 mph N6.9 kmh N 7.9 mph12.7 kmh 30.04 in1017.3 mb 0.00 in0.0 mm 0.00 in0.0 mm 0.00 in0.0 mm
08:15 AM 34.0°F1.1°C 29.1°F-1.6°C 82% 0.5 mph NE0.8 kmh NE 5.4 mph8.7 kmh 30.04 in1017.3 mb 0.00 in0.0 mm 0.00 in0.0 mm 0.00 in0.0 mm
07:46 AM 32.5°F0.3°C 26.7°F-2.9°C 79% Calm Calm -- 30.01 in1016.3 mb 0.00 in0.0 mm 0.00 in0.0 mm 0.00 in0.0 mm
07:30 AM 32.4°F0.2°C 26.6°F-3.0°C 79% 0.2 mph ENE0.3 kmh ENE 2.5 mph4.0 kmh 30.01 in1016.3 mb 0.00 in0.0 mm 0.00 in0.0 mm 0.00 in0.0 mm
07:15 AM 32.0°F0.0°C 26.2°F-3.2°C 79% Calm Calm -- 30.01 in1016.3 mb 0.00 in0.0 mm 0.00 in0.0 mm 0.00 in0.0 mm
07:00 AM 32.0°F0.0°C 25.9°F-3.4°C 78% 0.1 mph NNE0.2 kmh NNE 2.5 mph4.0 kmh 30.01 in1016.3 mb 0.00 in0.0 mm 0.00 in0.0 mm 0.00 in0.0 mm
06:45 AM 32.4°F0.2°C 26.3°F-3.2°C 78% 0.2 mph NNW0.3 kmh NNW 4.7 mph7.6 kmh 30.04 in1017.3 mb 0.00 in0.0 mm 0.00 in0.0 mm 0.00 in0.0 mm
06:30 AM 32.5°F0.3°C 26.4°F-3.1°C 78% Calm Calm -- 30.04 in1017.3 mb 0.00 in0.0 mm 0.00 in0.0 mm 0.00 in0.0 mm
06:15 AM 32.9°F0.5°C 26.8°F-2.9°C 78% 0.8 mph N1.3 kmh N 5.0 mph8.0 kmh 30.04 in1017.3 mb 0.00 in0.0 mm 0.00 in0.0 mm 0.00 in0.0 mm
06:00 AM 33.1°F0.6°C 26.7°F-2.9°C 77% 1.2 mph NW1.9 kmh NW 5.4 mph8.7 kmh 30.01 in1016.3 mb 0.00 in0.0 mm 0.00 in0.0 mm 0.00 in0.0 mm
05:45 AM 33.3°F0.7°C 26.8°F-2.9°C 77% Calm Calm -- 30.01 in1016.3 mb 0.00 in0.0 mm 0.00 in0.0 mm 0.00 in0.0 mm
05:30 AM 34.2°F1.2°C 27.7°F-2.4°C 77% 0.7 mph N1.1 kmh N 5.0 mph8.0 kmh 29.98 in1015.2 mb 0.00 in0.0 mm 0.00 in0.0 mm 0.00 in0.0 mm
05:15 AM 34.9°F1.6°C 28.7°F-1.8°C 78% 1.5 mph ENE2.4 kmh ENE 9.3 mph15.0 kmh 29.98 in1015.2 mb 0.00 in0.0 mm 0.00 in0.0 mm 0.00 in0.0 mm
05:00 AM 35.6°F2.0°C 29.7°F-1.3°C 79% 5.2 mph NE8.4 kmh NE 11.8 mph19.0 kmh 29.98 in1015.2 mb 0.00 in0.0 mm 0.00 in0.0 mm 0.00 in0.0 mm
04:45 AM 34.5°F1.4°C 28.4°F-2.0°C 78% Calm Calm -- 29.98 in1015.2 mb 0.00 in0.0 mm 0.00 in0.0 mm 0.00 in0.0 mm
04:30 AM 34.3°F1.3°C 27.9°F-2.3°C 77% Calm Calm -- 29.98 in1015.2 mb 0.00 in0.0 mm 0.00 in0.0 mm 0.00 in0.0 mm
04:15 AM 34.5°F1.4°C 28.1°F-2.2°C 77% 0.4 mph N0.6 kmh N 4.7 mph7.6 kmh 29.95 in1014.2 mb 0.00 in0.0 mm 0.00 in0.0 mm 0.00 in0.0 mm
04:00 AM 34.9°F1.6°C 28.1°F-2.2°C 76% 0.4 mph N0.6 kmh N 4.3 mph6.9 kmh 29.98 in1015.2 mb 0.00 in0.0 mm 0.00 in0.0 mm 0.00 in0.0 mm
03:45 AM 35.4°F1.9°C 28.6°F-1.9°C 76% 1.5 mph N2.4 kmh N 5.7 mph9.2 kmh 29.98 in1015.2 mb 0.00 in0.0 mm 0.00 in0.0 mm 0.00 in0.0 mm
03:30 AM 35.8°F2.1°C 29.0°F-1.7°C 76% 1.1 mph NNW1.8 kmh NNW 5.0 mph8.0 kmh 29.98 in1015.2 mb 0.00 in0.0 mm 0.00 in0.0 mm 0.00 in0.0 mm
03:15 AM 35.8°F2.1°C 29.0°F-1.7°C 76% 1.3 mph N2.1 kmh N 5.0 mph8.0 kmh 29.98 in1015.2 mb 0.00 in0.0 mm 0.00 in0.0 mm 0.00 in0.0 mm
03:00 AM 35.8°F2.1°C 28.6°F-1.9°C 75% 0.8 mph N1.3 kmh N 5.7 mph9.2 kmh 29.98 in1015.2 mb 0.00 in0.0 mm 0.00 in0.0 mm 0.00 in0.0 mm
02:45 AM 36.0°F2.2°C 28.8°F-1.8°C 75% Calm Calm -- 29.98 in1015.2 mb 0.00 in0.0 mm 0.00 in0.0 mm 0.00 in0.0 mm
02:30 AM 36.0°F2.2°C 28.8°F-1.8°C 75% 0.2 mph N0.3 kmh N 3.9 mph6.3 kmh 29.95 in1014.2 mb 0.00 in0.0 mm 0.00 in0.0 mm 0.00 in0.0 mm
02:15 AM 36.1°F2.3°C 29.0°F-1.7°C 75% 0.4 mph NNE0.6 kmh NNE 5.0 mph8.0 kmh 29.95 in1014.2 mb 0.00 in0.0 mm 0.00 in0.0 mm 0.00 in0.0 mm
02:00 AM 36.3°F2.4°C 28.8°F-1.8°C 74% 5.7 mph N9.2 kmh N 10.4 mph16.7 kmh 29.98 in1015.2 mb 0.00 in0.0 mm 0.00 in0.0 mm 0.00 in0.0 mm
01:45 AM 36.0°F2.2°C 28.1°F-2.2°C 73% 4.6 mph N7.4 kmh N 7.9 mph12.7 kmh 29.95 in1014.2 mb 0.00 in0.0 mm 0.00 in0.0 mm 0.00 in0.0 mm
01:30 AM 36.3°F2.4°C 28.5°F-1.9°C 73% 6.3 mph N10.1 kmh N 10.7 mph17.2 kmh 29.95 in1014.2 mb 0.00 in0.0 mm 0.00 in0.0 mm 0.00 in0.0 mm
01:15 AM 36.3°F2.4°C 28.2°F-2.1°C 72% 7.5 mph N12.1 kmh N 12.5 mph20.1 kmh 29.95 in1014.2 mb 0.00 in0.0 mm 0.00 in0.0 mm 0.00 in0.0 mm
01:00 AM 36.3°F2.4°C 28.2°F-2.1°C 72% 6.1 mph N9.8 kmh N 10.4 mph16.7 kmh 29.95 in1014.2 mb 0.00 in0.0 mm 0.00 in0.0 mm 0.00 in0.0 mm
12:45 AM 36.1°F2.3°C 28.0°F-2.2°C 72% 3.9 mph NNE6.3 kmh NNE 8.9 mph14.3 kmh 29.95 in1014.2 mb 0.00 in0.0 mm 0.00 in0.0 mm 0.00 in0.0 mm
12:30 AM 36.0°F2.2°C 27.8°F-2.3°C 72% 1.8 mph NE2.9 kmh NE 6.4 mph10.3 kmh 29.95 in1014.2 mb 0.00 in0.0 mm 0.00 in0.0 mm 0.00 in0.0 mm
12:15 AM 35.8°F2.1°C 27.6°F-2.4°C 72% 5.8 mph NE9.3 kmh NE 10.4 mph16.7 kmh 29.95 in1014.2 mb 0.00 in0.0 mm 0.00 in0.0 mm 0.00 in0.0 mm
12:00 AM 35.6°F2.0°C 27.5°F-2.5°C 72% 5.9 mph NE9.5 kmh NE 10.0 mph16.1 kmh 29.95 in1014.2 mb 0.00 in0.0 mm 0.00 in0.0 mm 0.00 in0.0 mm